Weather at El Lani Borderpost Helipad

Public forecast

Using degrees Celsius for public forecast. Weather courtesy of forecast.io.

Closest aviation weather report (METAR) to El Lani Borderpost Helipad

Closest report is Hatay Airport, 12.6 nm (23.2 km) NNW.

2024/07/24 05:50 (retrieved 22 minutes ago)

LTDA 240550Z 22016KT 9999 SCT040 31/24 Q1001 NOSIG

Closest aviation forecast (TAF) to El Lani Borderpost Helipad

Closest forecast is Aleppo International Airport, 41.5 nm (76.8 km) E.

2024/07/24 06:00 (retrieved 12 minutes ago)

TAF OSAP 240500Z 2406/2506 23008KT CAVOK TEMPO 2418/2422 27015KT